Terminal Aerodrome Forecast
Issued by NWS

Home | Current Version | Previous Version | Text Only | Print | Product List | Glossary On
Versions: 1 2 3 4 5 6 7 8 9 10 11 12 13 14 15
096
FTUS44 KTSA 290520
TAFMLC
TAF
KMLC 290520Z 2906/3006 18004KT P6SM SCT250
     FM291800 20005KT P6SM SCT050 PROB30 2918/2924 5SM -TSRA
      BKN050CB=

USA.gov is the U.S. government's official web portal to all federal, state and local government web resources and services.